sensor_id;sensor_type;location;lat;lon;timestamp;temperature;humidity
21318;DHT22;10818;50.830;6.524;2022-11-20T00:03:01;5.20;99.90
21318;DHT22;10818;50.830;6.524;2022-11-20T00:08:02;5.20;99.90
21318;DHT22;10818;50.830;6.524;2022-11-20T00:13:02;5.10;99.90
21318;DHT22;10818;50.830;6.524;2022-11-20T00:18:03;5.00;99.90
21318;DHT22;10818;50.830;6.524;2022-11-20T00:23:03;5.00;99.90
21318;DHT22;10818;50.830;6.524;2022-11-20T00:28:04;5.00;99.90
21318;DHT22;10818;50.830;6.524;2022-11-20T00:33:04;5.20;99.90
21318;DHT22;10818;50.830;6.524;2022-11-20T00:38:04;5.10;99.90
21318;DHT22;10818;50.830;6.524;2022-11-20T00:43:05;5.30;99.90
21318;DHT22;10818;50.830;6.524;2022-11-20T00:48:05;5.20;99.90
21318;DHT22;10818;50.830;6.524;2022-11-20T00:53:06;5.30;99.90
21318;DHT22;10818;50.830;6.524;2022-11-20T00:58:06;5.30;99.90
21318;DHT22;10818;50.830;6.524;2022-11-20T01:03:06;5.20;99.90
21318;DHT22;10818;50.830;6.524;2022-11-20T01:08:07;5.20;99.90
21318;DHT22;10818;50.830;6.524;2022-11-20T01:13:07;5.10;99.90
21318;DHT22;10818;50.830;6.524;2022-11-20T01:18:27;5.10;99.90
21318;DHT22;10818;50.830;6.524;2022-11-20T01:23:30;4.90;99.90
21318;DHT22;10818;50.830;6.524;2022-11-20T01:28:30;4.70;99.90
21318;DHT22;10818;50.830;6.524;2022-11-20T01:33:31;4.70;99.90
21318;DHT22;10818;50.830;6.524;2022-11-20T01:38:32;4.90;99.90
21318;DHT22;10818;50.830;6.524;2022-11-20T01:43:32;4.90;99.90
21318;DHT22;10818;50.830;6.524;2022-11-20T01:48:36;5.00;99.90
21318;DHT22;10818;50.830;6.524;2022-11-20T01:53:37;5.00;99.90
21318;DHT22;10818;50.830;6.524;2022-11-20T01:58:39;5.00;99.90
21318;DHT22;10818;50.830;6.524;2022-11-20T02:03:41;5.00;99.90
21318;DHT22;10818;50.830;6.524;2022-11-20T02:08:42;5.00;99.90
21318;DHT22;10818;50.830;6.524;2022-11-20T02:13:42;4.90;99.90
21318;DHT22;10818;50.830;6.524;2022-11-20T02:18:43;5.00;99.90
21318;DHT22;10818;50.830;6.524;2022-11-20T02:29:03;4.70;99.90
21318;DHT22;10818;50.830;6.524;2022-11-20T02:34:04;4.80;99.90
21318;DHT22;10818;50.830;6.524;2022-11-20T02:39:04;4.80;99.90
21318;DHT22;10818;50.830;6.524;2022-11-20T02:44:05;4.90;99.90
21318;DHT22;10818;50.830;6.524;2022-11-20T02:49:06;4.90;99.90
21318;DHT22;10818;50.830;6.524;2022-11-20T02:54:06;4.90;99.90
21318;DHT22;10818;50.830;6.524;2022-11-20T02:59:07;4.80;99.90
21318;DHT22;10818;50.830;6.524;2022-11-20T03:04:07;4.90;99.90
21318;DHT22;10818;50.830;6.524;2022-11-20T03:09:08;5.00;99.90
21318;DHT22;10818;50.830;6.524;2022-11-20T03:14:08;5.00;99.90
21318;DHT22;10818;50.830;6.524;2022-11-20T03:19:09;4.80;99.90
21318;DHT22;10818;50.830;6.524;2022-11-20T03:24:09;4.90;99.90
21318;DHT22;10818;50.830;6.524;2022-11-20T03:29:10;4.90;99.90
21318;DHT22;10818;50.830;6.524;2022-11-20T03:34:10;5.00;99.90
21318;DHT22;10818;50.830;6.524;2022-11-20T03:39:11;4.90;99.90
21318;DHT22;10818;50.830;6.524;2022-11-20T03:44:12;5.00;99.90
21318;DHT22;10818;50.830;6.524;2022-11-20T03:49:12;4.80;99.90
21318;DHT22;10818;50.830;6.524;2022-11-20T03:54:13;5.00;99.90
21318;DHT22;10818;50.830;6.524;2022-11-20T03:59:13;5.00;99.90
21318;DHT22;10818;50.830;6.524;2022-11-20T04:04:14;5.10;99.90
21318;DHT22;10818;50.830;6.524;2022-11-20T04:09:14;5.00;99.90
21318;DHT22;10818;50.830;6.524;2022-11-20T04:14:15;5.00;99.90
21318;DHT22;10818;50.830;6.524;2022-11-20T04:19:16;5.00;99.90
21318;DHT22;10818;50.830;6.524;2022-11-20T04:24:16;5.10;99.90
21318;DHT22;10818;50.830;6.524;2022-11-20T04:29:17;5.10;99.90
21318;DHT22;10818;50.830;6.524;2022-11-20T04:34:17;5.10;99.90
21318;DHT22;10818;50.830;6.524;2022-11-20T04:39:18;5.10;99.90
21318;DHT22;10818;50.830;6.524;2022-11-20T04:44:18;5.10;99.90
21318;DHT22;10818;50.830;6.524;2022-11-20T04:49:19;5.20;99.90
21318;DHT22;10818;50.830;6.524;2022-11-20T04:54:19;5.20;99.90
21318;DHT22;10818;50.830;6.524;2022-11-20T04:59:20;5.30;99.90
21318;DHT22;10818;50.830;6.524;2022-11-20T05:04:21;5.30;99.90
21318;DHT22;10818;50.830;6.524;2022-11-20T05:09:21;5.30;99.90
21318;DHT22;10818;50.830;6.524;2022-11-20T05:14:22;5.20;99.90
21318;DHT22;10818;50.830;6.524;2022-11-20T05:19:22;5.10;99.90
21318;DHT22;10818;50.830;6.524;2022-11-20T05:24:23;5.10;99.90
21318;DHT22;10818;50.830;6.524;2022-11-20T05:29:23;5.00;99.90
21318;DHT22;10818;50.830;6.524;2022-11-20T05:34:23;4.90;99.90
21318;DHT22;10818;50.830;6.524;2022-11-20T05:39:24;5.00;99.90
21318;DHT22;10818;50.830;6.524;2022-11-20T05:44:24;4.90;99.90
21318;DHT22;10818;50.830;6.524;2022-11-20T05:49:25;4.90;99.90
21318;DHT22;10818;50.830;6.524;2022-11-20T05:54:25;4.70;99.90
21318;DHT22;10818;50.830;6.524;2022-11-20T05:59:26;4.70;99.90
21318;DHT22;10818;50.830;6.524;2022-11-20T06:04:26;4.90;99.90
21318;DHT22;10818;50.830;6.524;2022-11-20T06:09:27;5.00;99.90
21318;DHT22;10818;50.830;6.524;2022-11-20T06:14:27;5.00;99.90
21318;DHT22;10818;50.830;6.524;2022-11-20T06:19:27;5.20;99.90
21318;DHT22;10818;50.830;6.524;2022-11-20T06:24:28;5.30;99.90
21318;DHT22;10818;50.830;6.524;2022-11-20T06:29:28;5.10;99.90
21318;DHT22;10818;50.830;6.524;2022-11-20T06:34:29;5.10;99.90
21318;DHT22;10818;50.830;6.524;2022-11-20T06:39:29;5.20;99.90
21318;DHT22;10818;50.830;6.524;2022-11-20T06:44:30;5.30;99.90
21318;DHT22;10818;50.830;6.524;2022-11-20T06:49:30;5.30;99.90
21318;DHT22;10818;50.830;6.524;2022-11-20T06:54:31;5.30;99.90
21318;DHT22;10818;50.830;6.524;2022-11-20T06:59:31;5.40;99.90
21318;DHT22;10818;50.830;6.524;2022-11-20T07:04:31;5.40;99.90
21318;DHT22;10818;50.830;6.524;2022-11-20T07:09:32;5.40;99.90
21318;DHT22;10818;50.830;6.524;2022-11-20T07:14:33;5.40;99.90
21318;DHT22;10818;50.830;6.524;2022-11-20T07:19:34;5.30;99.90
21318;DHT22;10818;50.830;6.524;2022-11-20T07:24:34;5.20;99.90
21318;DHT22;10818;50.830;6.524;2022-11-20T07:29:35;5.40;99.90
21318;DHT22;10818;50.830;6.524;2022-11-20T07:34:35;5.50;99.90
21318;DHT22;10818;50.830;6.524;2022-11-20T07:39:36;5.50;99.90
21318;DHT22;10818;50.830;6.524;2022-11-20T07:44:36;5.60;99.90
21318;DHT22;10818;50.830;6.524;2022-11-20T07:49:37;5.60;99.90
21318;DHT22;10818;50.830;6.524;2022-11-20T07:54:37;5.30;99.90
21318;DHT22;10818;50.830;6.524;2022-11-20T07:59:37;5.60;99.90
21318;DHT22;10818;50.830;6.524;2022-11-20T08:04:39;5.40;99.90
21318;DHT22;10818;50.830;6.524;2022-11-20T08:09:39;5.50;99.90
21318;DHT22;10818;50.830;6.524;2022-11-20T08:14:39;5.60;99.90
21318;DHT22;10818;50.830;6.524;2022-11-20T08:19:40;5.60;99.90
21318;DHT22;10818;50.830;6.524;2022-11-20T08:24:40;5.90;99.90
21318;DHT22;10818;50.830;6.524;2022-11-20T08:29:41;6.00;99.90
21318;DHT22;10818;50.830;6.524;2022-11-20T08:34:41;5.90;99.90
21318;DHT22;10818;50.830;6.524;2022-11-20T08:39:42;6.10;99.90
21318;DHT22;10818;50.830;6.524;2022-11-20T08:44:42;6.10;99.90
21318;DHT22;10818;50.830;6.524;2022-11-20T08:49:43;6.20;99.90
21318;DHT22;10818;50.830;6.524;2022-11-20T08:54:43;6.40;99.90
21318;DHT22;10818;50.830;6.524;2022-11-20T08:59:45;6.40;99.90
21318;DHT22;10818;50.830;6.524;2022-11-20T09:04:46;6.60;99.90
21318;DHT22;10818;50.830;6.524;2022-11-20T09:09:47;6.80;99.90
21318;DHT22;10818;50.830;6.524;2022-11-20T09:14:48;6.90;99.90
21318;DHT22;10818;50.830;6.524;2022-11-20T09:19:48;6.90;99.90
21318;DHT22;10818;50.830;6.524;2022-11-20T09:24:48;7.00;99.90
21318;DHT22;10818;50.830;6.524;2022-11-20T09:29:49;7.20;99.90
21318;DHT22;10818;50.830;6.524;2022-11-20T09:34:49;7.40;99.90
21318;DHT22;10818;50.830;6.524;2022-11-20T09:39:50;7.50;99.90
21318;DHT22;10818;50.830;6.524;2022-11-20T09:45:01;7.60;99.90
21318;DHT22;10818;50.830;6.524;2022-11-20T09:55:04;7.50;99.90
21318;DHT22;10818;50.830;6.524;2022-11-20T10:00:09;7.30;99.90
21318;DHT22;10818;50.830;6.524;2022-11-20T10:05:16;7.20;99.90
21318;DHT22;10818;50.830;6.524;2022-11-20T10:11:04;7.20;99.90
21318;DHT22;10818;50.830;6.524;2022-11-20T10:26:14;6.70;99.90
21318;DHT22;10818;50.830;6.524;2022-11-20T10:31:50;6.70;99.90
21318;DHT22;10818;50.830;6.524;2022-11-20T10:36:44;6.70;99.90
21318;DHT22;10818;50.830;6.524;2022-11-20T10:41:47;6.50;99.90
21318;DHT22;10818;50.830;6.524;2022-11-20T10:46:49;6.70;99.90
21318;DHT22;10818;50.830;6.524;2022-11-20T10:56:54;6.70;99.90
21318;DHT22;10818;50.830;6.524;2022-11-20T11:01:56;6.80;99.90
21318;DHT22;10818;50.830;6.524;2022-11-20T11:06:58;6.80;99.90
21318;DHT22;10818;50.830;6.524;2022-11-20T11:12:01;6.90;99.90
21318;DHT22;10818;50.830;6.524;2022-11-20T11:17:01;6.90;99.90
21318;DHT22;10818;50.830;6.524;2022-11-20T11:22:02;6.90;99.90
21318;DHT22;10818;50.830;6.524;2022-11-20T11:27:11;7.00;99.90
21318;DHT22;10818;50.830;6.524;2022-11-20T11:32:13;6.80;99.90
21318;DHT22;10818;50.830;6.524;2022-11-20T11:37:18;6.90;99.90
21318;DHT22;10818;50.830;6.524;2022-11-20T11:42:22;7.00;99.90
21318;DHT22;10818;50.830;6.524;2022-11-20T11:47:26;7.20;99.90
21318;DHT22;10818;50.830;6.524;2022-11-20T11:52:27;7.50;99.90
21318;DHT22;10818;50.830;6.524;2022-11-20T12:07:39;7.60;99.90
21318;DHT22;10818;50.830;6.524;2022-11-20T12:12:43;7.80;99.90
21318;DHT22;10818;50.830;6.524;2022-11-20T12:17:44;7.80;99.90
21318;DHT22;10818;50.830;6.524;2022-11-20T12:33:13;7.90;99.90
21318;DHT22;10818;50.830;6.524;2022-11-20T12:38:30;8.00;99.90
21318;DHT22;10818;50.830;6.524;2022-11-20T12:43:44;8.00;99.90
21318;DHT22;10818;50.830;6.524;2022-11-20T13:09:50;7.70;99.90
21318;DHT22;10818;50.830;6.524;2022-11-20T13:14:59;7.70;99.90
21318;DHT22;10818;50.830;6.524;2022-11-20T13:20:01;7.80;99.90
21318;DHT22;10818;50.830;6.524;2022-11-20T13:25:02;7.80;99.90
21318;DHT22;10818;50.830;6.524;2022-11-20T13:30:12;7.80;99.90
21318;DHT22;10818;50.830;6.524;2022-11-20T13:35:23;7.80;99.90
21318;DHT22;10818;50.830;6.524;2022-11-20T13:40:23;7.90;99.90
21318;DHT22;10818;50.830;6.524;2022-11-20T13:45:28;8.00;99.90
21318;DHT22;10818;50.830;6.524;2022-11-20T13:50:38;7.90;99.90
21318;DHT22;10818;50.830;6.524;2022-11-20T13:55:45;7.80;99.90
21318;DHT22;10818;50.830;6.524;2022-11-20T14:01:08;7.90;99.90
21318;DHT22;10818;50.830;6.524;2022-11-20T14:06:12;7.90;99.90
21318;DHT22;10818;50.830;6.524;2022-11-20T14:16:18;7.90;99.90
21318;DHT22;10818;50.830;6.524;2022-11-20T14:21:23;7.80;99.90
21318;DHT22;10818;50.830;6.524;2022-11-20T14:26:23;7.70;99.90
21318;DHT22;10818;50.830;6.524;2022-11-20T14:31:25;7.70;99.90
21318;DHT22;10818;50.830;6.524;2022-11-20T14:36:26;7.60;99.90
21318;DHT22;10818;50.830;6.524;2022-11-20T14:41:27;7.60;99.90
21318;DHT22;10818;50.830;6.524;2022-11-20T14:46:27;7.60;99.90
21318;DHT22;10818;50.830;6.524;2022-11-20T14:51:31;7.70;99.90
21318;DHT22;10818;50.830;6.524;2022-11-20T14:56:32;7.70;99.90
21318;DHT22;10818;50.830;6.524;2022-11-20T15:01:32;7.80;99.90
21318;DHT22;10818;50.830;6.524;2022-11-20T15:06:33;7.90;99.90
21318;DHT22;10818;50.830;6.524;2022-11-20T15:11:34;7.80;99.90
21318;DHT22;10818;50.830;6.524;2022-11-20T15:16:35;7.90;99.90
21318;DHT22;10818;50.830;6.524;2022-11-20T15:21:35;8.10;99.90
21318;DHT22;10818;50.830;6.524;2022-11-20T15:26:36;7.90;99.90
21318;DHT22;10818;50.830;6.524;2022-11-20T15:31:37;8.00;99.90
21318;DHT22;10818;50.830;6.524;2022-11-20T15:36:41;8.10;99.90
21318;DHT22;10818;50.830;6.524;2022-11-20T15:41:42;8.10;99.90
21318;DHT22;10818;50.830;6.524;2022-11-20T15:46:43;8.20;99.90
21318;DHT22;10818;50.830;6.524;2022-11-20T15:51:47;8.10;99.90
21318;DHT22;10818;50.830;6.524;2022-11-20T15:56:48;8.10;99.90
21318;DHT22;10818;50.830;6.524;2022-11-20T16:01:49;8.10;99.90
21318;DHT22;10818;50.830;6.524;2022-11-20T16:35:38;7.60;99.90
21318;DHT22;10818;50.830;6.524;2022-11-20T16:40:39;7.60;99.90
21318;DHT22;10818;50.830;6.524;2022-11-20T16:51:18;7.60;99.90
21318;DHT22;10818;50.830;6.524;2022-11-20T16:56:26;7.50;99.90
21318;DHT22;10818;50.830;6.524;2022-11-20T17:01:27;7.50;99.90
21318;DHT22;10818;50.830;6.524;2022-11-20T17:06:29;7.50;99.90
21318;DHT22;10818;50.830;6.524;2022-11-20T17:11:29;7.50;99.90
21318;DHT22;10818;50.830;6.524;2022-11-20T17:16:30;7.50;99.90
21318;DHT22;10818;50.830;6.524;2022-11-20T17:21:31;7.60;99.90
21318;DHT22;10818;50.830;6.524;2022-11-20T17:26:32;7.50;99.90
21318;DHT22;10818;50.830;6.524;2022-11-20T17:31:33;7.60;99.90
21318;DHT22;10818;50.830;6.524;2022-11-20T17:36:33;7.70;99.90
21318;DHT22;10818;50.830;6.524;2022-11-20T17:41:34;7.80;99.90
21318;DHT22;10818;50.830;6.524;2022-11-20T17:46:34;7.90;99.90
21318;DHT22;10818;50.830;6.524;2022-11-20T17:51:35;8.10;99.90
21318;DHT22;10818;50.830;6.524;2022-11-20T17:56:35;8.10;99.90
21318;DHT22;10818;50.830;6.524;2022-11-20T18:01:54;8.20;99.90
21318;DHT22;10818;50.830;6.524;2022-11-20T18:06:55;8.30;99.90
21318;DHT22;10818;50.830;6.524;2022-11-20T18:11:55;8.20;99.90
21318;DHT22;10818;50.830;6.524;2022-11-20T18:17:06;8.40;99.90
21318;DHT22;10818;50.830;6.524;2022-11-20T18:22:07;8.40;99.90
21318;DHT22;10818;50.830;6.524;2022-11-20T18:27:11;8.40;99.90
21318;DHT22;10818;50.830;6.524;2022-11-20T18:32:12;8.60;99.90
21318;DHT22;10818;50.830;6.524;2022-11-20T18:37:13;8.50;99.90
21318;DHT22;10818;50.830;6.524;2022-11-20T18:42:15;8.50;99.90
21318;DHT22;10818;50.830;6.524;2022-11-20T18:47:35;8.50;99.90
21318;DHT22;10818;50.830;6.524;2022-11-20T18:52:38;8.70;99.90
21318;DHT22;10818;50.830;6.524;2022-11-20T18:57:38;8.50;99.90
21318;DHT22;10818;50.830;6.524;2022-11-20T19:02:39;8.60;99.90
21318;DHT22;10818;50.830;6.524;2022-11-20T19:07:40;8.70;99.90
21318;DHT22;10818;50.830;6.524;2022-11-20T19:12:41;8.60;99.90
21318;DHT22;10818;50.830;6.524;2022-11-20T19:17:41;8.60;99.90
21318;DHT22;10818;50.830;6.524;2022-11-20T19:22:42;8.60;99.90
21318;DHT22;10818;50.830;6.524;2022-11-20T19:27:42;8.70;99.90
21318;DHT22;10818;50.830;6.524;2022-11-20T19:32:43;8.70;99.90
21318;DHT22;10818;50.830;6.524;2022-11-20T19:37:43;8.70;99.90
21318;DHT22;10818;50.830;6.524;2022-11-20T19:42:44;8.70;99.90
21318;DHT22;10818;50.830;6.524;2022-11-20T19:47:44;8.80;99.90
21318;DHT22;10818;50.830;6.524;2022-11-20T19:52:44;8.80;99.90
21318;DHT22;10818;50.830;6.524;2022-11-20T19:57:45;8.60;99.90
21318;DHT22;10818;50.830;6.524;2022-11-20T20:02:45;8.60;99.90
21318;DHT22;10818;50.830;6.524;2022-11-20T20:07:46;8.80;99.90
21318;DHT22;10818;50.830;6.524;2022-11-20T20:12:46;8.60;99.90
21318;DHT22;10818;50.830;6.524;2022-11-20T20:17:47;8.50;99.90
21318;DHT22;10818;50.830;6.524;2022-11-20T20:22:47;8.60;99.90
21318;DHT22;10818;50.830;6.524;2022-11-20T20:27:48;8.50;99.90
21318;DHT22;10818;50.830;6.524;2022-11-20T20:32:48;8.40;99.90
21318;DHT22;10818;50.830;6.524;2022-11-20T20:37:48;8.30;99.90
21318;DHT22;10818;50.830;6.524;2022-11-20T20:42:49;8.40;99.90
21318;DHT22;10818;50.830;6.524;2022-11-20T20:47:49;8.40;99.90
21318;DHT22;10818;50.830;6.524;2022-11-20T20:52:50;8.20;99.90
21318;DHT22;10818;50.830;6.524;2022-11-20T20:57:50;8.10;99.90
21318;DHT22;10818;50.830;6.524;2022-11-20T21:02:52;8.00;99.90
21318;DHT22;10818;50.830;6.524;2022-11-20T21:07:53;7.90;99.90
21318;DHT22;10818;50.830;6.524;2022-11-20T21:13:12;7.90;99.90
21318;DHT22;10818;50.830;6.524;2022-11-20T21:18:13;7.90;99.90
21318;DHT22;10818;50.830;6.524;2022-11-20T21:23:14;7.80;99.90
21318;DHT22;10818;50.830;6.524;2022-11-20T21:28:14;7.70;99.90
21318;DHT22;10818;50.830;6.524;2022-11-20T21:33:14;7.70;99.90
21318;DHT22;10818;50.830;6.524;2022-11-20T21:38:15;7.80;99.90
21318;DHT22;10818;50.830;6.524;2022-11-20T21:43:15;7.90;99.90
21318;DHT22;10818;50.830;6.524;2022-11-20T21:48:16;7.90;99.90
21318;DHT22;10818;50.830;6.524;2022-11-20T21:53:16;7.90;99.90
21318;DHT22;10818;50.830;6.524;2022-11-20T21:58:17;7.80;99.90
21318;DHT22;10818;50.830;6.524;2022-11-20T22:03:17;7.80;99.90
21318;DHT22;10818;50.830;6.524;2022-11-20T22:08:18;7.90;99.90
21318;DHT22;10818;50.830;6.524;2022-11-20T22:13:18;7.80;99.90
21318;DHT22;10818;50.830;6.524;2022-11-20T22:18:44;7.90;99.90
21318;DHT22;10818;50.830;6.524;2022-11-20T22:23:45;7.90;99.90
21318;DHT22;10818;50.830;6.524;2022-11-20T22:28:46;8.10;99.90
21318;DHT22;10818;50.830;6.524;2022-11-20T22:33:47;8.00;99.90
21318;DHT22;10818;50.830;6.524;2022-11-20T22:38:47;8.00;99.90
21318;DHT22;10818;50.830;6.524;2022-11-20T22:43:48;8.00;99.90
21318;DHT22;10818;50.830;6.524;2022-11-20T22:48:53;8.10;99.90
21318;DHT22;10818;50.830;6.524;2022-11-20T22:53:54;8.20;99.90
21318;DHT22;10818;50.830;6.524;2022-11-20T23:04:45;8.10;99.90
21318;DHT22;10818;50.830;6.524;2022-11-20T23:10:13;8.20;99.90
21318;DHT22;10818;50.830;6.524;2022-11-20T23:15:14;8.20;99.90
21318;DHT22;10818;50.830;6.524;2022-11-20T23:20:14;8.10;99.90
21318;DHT22;10818;50.830;6.524;2022-11-20T23:25:15;8.10;99.90
21318;DHT22;10818;50.830;6.524;2022-11-20T23:30:15;8.10;99.90
21318;DHT22;10818;50.830;6.524;2022-11-20T23:35:16;8.20;99.90
21318;DHT22;10818;50.830;6.524;2022-11-20T23:40:16;8.20;99.90
21318;DHT22;10818;50.830;6.524;2022-11-20T23:45:17;8.30;99.90
21318;DHT22;10818;50.830;6.524;2022-11-20T23:50:17;8.20;99.90
21318;DHT22;10818;50.830;6.524;2022-11-20T23:55:18;8.10;99.90
